Terminal Aerodrome Forecast
Issued by NWS

Home | Current Version | Previous Version | Graphics & Text | Print | Product List | Glossary On
Versions: 1 2 3 4 5 6 7 8 9 10 11 12 13 14 15 16 17 18
000
FTUS43 KOAX 282300 CCA
TAFCDR
TAF COR
KCDR 282352Z 2900/2924 02014KT P6SM OVC007
     FM290300 03010KT P6SM -SHRA SCT015 BKN025
     FM290600 05008KT 3SM -SHRA SCT007 BKN015
     FM291600 02009KT P6SM VCSH SCT015 BKN025
     FM292000 03009KT P6SM VCTS SCT025CB BKN040=

USA.gov is the U.S. government's official web portal to all federal, state and local government web resources and services.